Time;durP1;ratioP1;P1;durP2;ratioP2;P2;SDS_P1;SDS_P2;PMS_P1;PMS_P2;Temp;Humidity;BMP_temperature;BMP_pressure;BME280_temperature;BME280_humidity;BME280_pressure;Samples;Min_cycle;Max_cycle;Signal;HPM_P1;HPM_P2
2022/06/23 00:00:07;;;;;;;;;;;;;;;23.57;44.04;101025.56;2082961;28;998;-56
2022/06/23 00:01:13;;;;;;;;;;;;;;;23.57;44.22;101023.75;2082795;28;1502;-57
2022/06/23 00:02:17;;;;;;;;;;;;;;;23.56;43.97;101016.56;2082862;28;1818;-56
2022/06/23 00:03:19;;;;;;;;;;;;;;;23.56;43.59;101024.69;2082904;28;1057;-57
2022/06/23 00:04:21;;;;;;;;;;;;;;;23.54;43.39;101023.88;2083727;28;907;-56
2022/06/23 00:05:24;;;;;;;;;;;;;;;23.54;42.89;101023.88;2084476;28;998;-57
2022/06/23 00:06:25;;;;;;;;;;;;;;;23.52;42.90;101023.06;2084393;28;961;-57
2022/06/23 00:07:30;;;;;;;;;;;;;;;23.53;42.47;101016.69;2083909;28;1021;-56
2022/06/23 00:08:30;;;;;;;;;;;;;;;23.54;42.18;101024.78;2084441;28;1010;-57
2022/06/23 00:09:38;;;;;;;;;;;;;;;23.51;42.44;101014.09;2084452;28;835;-57
2022/06/23 00:10:43;;;;;;;;;;;;;;;23.52;41.81;101023.06;2084418;28;831;-56
2022/06/23 00:11:48;;;;;;;;;;;;;;;23.50;41.85;101019.53;2084459;28;839;-57
2022/06/23 00:12:49;;;;;;;;;;;;;;;23.50;41.57;101017.72;2084577;28;773;-57
2022/06/23 00:13:50;;;;;;;;;;;;;;;23.50;41.62;101016.84;2084420;28;1049;-56
2022/06/23 00:15:02;;;;;;;;;;;;;;;23.49;41.59;101013.28;2075553;28;1306;-57
2022/06/23 00:16:04;;;;;;;;;;;;;;;23.48;42.20;101016.91;2077277;28;1042;-57
2022/06/23 00:17:15;;;;;;;;;;;;;;;23.48;41.64;101014.22;2084293;28;1890;-57
2022/06/23 00:18:20;;;;;;;;;;;;;;;23.48;41.69;101011.50;2083784;28;1075;-57
2022/06/23 00:19:20;;;;;;;;;;;;;;;23.47;41.38;101012.47;2084384;28;780;-57
2022/06/23 00:20:23;;;;;;;;;;;;;;;23.47;41.87;101014.25;2084378;28;1029;-56
2022/06/23 00:21:29;;;;;;;;;;;;;;;23.47;41.52;101017.88;2084362;28;942;-57
2022/06/23 00:22:30;;;;;;;;;;;;;;;23.47;42.28;101019.66;2084353;28;839;-56
2022/06/23 00:23:35;;;;;;;;;;;;;;;23.47;41.90;101019.66;2084296;28;1002;-57
2022/06/23 00:24:36;;;;;;;;;;;;;;;23.47;42.32;101020.56;2084319;28;1053;-56
2022/06/23 00:25:40;;;;;;;;;;;;;;;23.48;41.55;101013.31;2084285;28;871;-56
2022/06/23 00:26:40;;;;;;;;;;;;;;;23.47;42.27;101011.56;2084325;28;797;-56
2022/06/23 00:27:41;;;;;;;;;;;;;;;23.47;42.19;101014.25;2084126;28;1149;-57
2022/06/23 00:28:46;;;;;;;;;;;;;;;23.47;42.40;101011.56;2084318;28;769;-56
2022/06/23 00:29:46;;;;;;;;;;;;;;;23.46;42.26;101010.69;2083714;28;1055;-57
2022/06/23 00:30:50;;;;;;;;;;;;;;;23.46;42.45;101015.22;2084266;28;994;-57
2022/06/23 00:31:58;;;;;;;;;;;;;;;23.47;42.55;101016.97;2084314;28;851;-56
2022/06/23 00:33:05;;;;;;;;;;;;;;;23.46;42.73;101016.09;2084255;28;1018;-57
2022/06/23 00:34:13;;;;;;;;;;;;;;;23.45;42.17;101019.75;2084283;28;870;-56
2022/06/23 00:35:17;;;;;;;;;;;;;;;23.43;42.06;101016.22;2084309;28;776;-56
2022/06/23 00:36:37;;;;;;;;;;;;;;;23.43;42.99;101013.53;2084144;28;2364;-56
2022/06/23 00:37:37;;;;;;;;;;;;;;;23.45;42.73;101025.16;2084206;28;1310;-57
2022/06/23 00:38:38;;;;;;;;;;;;;;;23.43;43.14;101010.81;2084213;28;1033;-56
2022/06/23 00:39:57;;;;;;;;;;;;;;;23.43;43.06;101016.22;2084225;28;844;-56
2022/06/23 00:40:59;;;;;;;;;;;;;;;23.45;43.17;101021.56;2083718;28;1122;-57
2022/06/23 00:42:00;;;;;;;;;;;;;;;23.45;42.94;101018.84;2084206;28;776;-56
2022/06/23 00:43:02;;;;;;;;;;;;;;;23.44;43.14;101015.28;2084192;28;1065;-57
2022/06/23 00:44:06;;;;;;;;;;;;;;;23.43;43.14;101016.22;2084139;28;851;-57
2022/06/23 00:45:09;;;;;;;;;;;;;;;23.43;43.39;101023.44;2084194;28;776;-57
2022/06/23 00:46:14;;;;;;;;;;;;;;;23.43;43.55;101024.34;2084127;28;1053;-56
2022/06/23 00:47:18;;;;;;;;;;;;;;;23.42;43.51;101019.88;2084226;28;998;-57
2022/06/23 00:48:25;;;;;;;;;;;;;;;23.43;43.21;101015.34;2084133;28;1073;-57
2022/06/23 00:49:41;;;;;;;;;;;;;;;23.42;42.99;101011.78;2084124;28;895;-57
2022/06/23 00:50:58;;;;;;;;;;;;;;;23.39;43.86;101011.91;2084145;28;1010;-57
2022/06/23 00:52:12;;;;;;;;;;;;;;;23.38;43.82;101018.25;2083677;28;1008;-56
2022/06/23 00:53:12;;;;;;;;;;;;;;;23.38;43.55;101018.25;2084182;28;803;-56
2022/06/23 00:54:19;;;;;;;;;;;;;;;23.37;43.89;101016.50;2084106;28;1013;-56
2022/06/23 00:55:41;;;;;;;;;;;;;;;23.37;44.68;101028.16;2084195;28;957;-57
2022/06/23 00:56:54;;;;;;;;;;;;;;;23.37;44.70;101030.88;2084092;28;1945;-57
2022/06/23 00:57:57;;;;;;;;;;;;;;;23.35;45.76;101016.53;2084124;28;792;-57
2022/06/23 00:59:05;;;;;;;;;;;;;;;23.36;46.03;101023.69;2084080;28;863;-56
2022/06/23 01:00:08;;;;;;;;;;;;;;;23.37;45.77;101013.78;2084058;28;1110;-57
2022/06/23 01:01:15;;;;;;;;;;;;;;;23.36;46.54;101026.41;2083972;28;1119;-57
2022/06/23 01:02:17;;;;;;;;;;;;;;;23.35;46.77;101026.50;2083937;28;998;-56
2022/06/23 01:03:47;;;;;;;;;;;;;;;23.33;46.55;101023.84;2083462;28;1022;-56
2022/06/23 01:04:50;;;;;;;;;;;;;;;23.32;47.11;101021.22;2058579;28;1247;-57
2022/06/23 01:05:54;;;;;;;;;;;;;;;23.31;46.93;101022.16;2058755;28;800;-56
2022/06/23 01:06:57;;;;;;;;;;;;;;;23.29;46.70;101019.50;2058832;28;1022;-56
2022/06/23 01:07:57;;;;;;;;;;;;;;;23.30;47.44;101023.09;2058688;28;887;-57
2022/06/23 01:09:16;;;;;;;;;;;;;;;23.30;47.59;101018.56;2058740;28;1013;-56
2022/06/23 01:10:24;;;;;;;;;;;;;;;23.30;47.87;101021.25;2058795;28;788;-56
2022/06/23 01:11:36;;;;;;;;;;;;;;;23.29;48.16;101015.94;2058666;28;965;-57
2022/06/23 01:12:48;;;;;;;;;;;;;;;23.30;48.07;101012.28;2058683;28;942;-57
2022/06/23 01:13:51;;;;;;;;;;;;;;;23.29;48.14;101011.38;2058665;28;839;-56
2022/06/23 01:15:00;;;;;;;;;;;;;;;23.28;47.71;100997.97;2058089;28;895;-57
2022/06/23 01:16:07;;;;;;;;;;;;;;;23.28;48.42;101006.06;2057692;28;947;-56
2022/06/23 01:17:19;;;;;;;;;;;;;;;23.26;48.29;100998.00;2058579;28;1902;-57
2022/06/23 01:18:22;;;;;;;;;;;;;;;23.25;48.14;101004.38;2058671;28;841;-56
2022/06/23 01:19:46;;;;;;;;;;;;;;;23.25;48.91;101007.09;2058621;28;1034;-56
2022/06/23 01:20:47;;;;;;;;;;;;;;;23.24;49.34;101006.19;2058661;28;934;-56
2022/06/23 01:21:53;;;;;;;;;;;;;;;23.22;49.26;101010.78;2058646;28;831;-56
2022/06/23 01:23:00;;;;;;;;;;;;;;;23.20;49.45;101009.06;2058667;28;943;-56
2022/06/23 01:24:19;;;;;;;;;;;;;;;23.19;49.22;101001.91;2058624;28;871;-56
2022/06/23 01:25:28;;;;;;;;;;;;;;;23.20;49.10;101004.53;2058598;28;1094;-56
2022/06/23 01:26:34;;;;;;;;;;;;;;;23.18;49.39;101001.00;2058632;28;844;-57
2022/06/23 01:27:45;;;;;;;;;;;;;;;23.19;48.51;101004.59;2058470;28;1127;-56
2022/06/23 01:28:45;;;;;;;;;;;;;;;23.17;48.57;101004.66;2058311;28;1136;-56
2022/06/23 01:29:46;;;;;;;;;;;;;;;23.15;48.25;101003.84;2058579;28;1009;-56
2022/06/23 01:30:54;;;;;;;;;;;;;;;23.15;48.91;101000.28;2058542;28;896;-57
2022/06/23 01:31:56;;;;;;;;;;;;;;;23.13;48.43;100996.75;2058585;28;840;-57
2022/06/23 01:33:02;;;;;;;;;;;;;;;23.12;47.36;100997.69;2058506;28;1140;-57
2022/06/23 01:34:09;;;;;;;;;;;;;;;23.12;47.69;101005.81;2058568;28;987;-56
2022/06/23 01:35:25;;;;;;;;;;;;;;;23.10;47.30;101000.44;2058540;28;1079;-57
2022/06/23 01:36:25;;;;;;;;;;;;;;;23.09;47.16;100993.28;2058533;28;1985;-57
2022/06/23 01:37:28;;;;;;;;;;;;;;;23.09;46.66;101002.28;2057992;28;1204;-57
2022/06/23 01:38:38;;;;;;;;;;;;;;;23.09;45.43;100996.88;2058474;28;1057;-56
2022/06/23 01:39:45;;;;;;;;;;;;;;;23.08;46.09;100997.81;2050473;29;1303;-57
2022/06/23 01:40:52;;;;;;;;;;;;;;;23.07;45.51;100993.38;2043232;29;1229;-56
2022/06/23 01:41:56;;;;;;;;;;;;;;;23.06;45.42;100998.81;2062075;28;1037;-57
2022/06/23 01:43:12;;;;;;;;;;;;;;;23.06;44.80;101005.13;2075568;28;867;-56
2022/06/23 01:44:24;;;;;;;;;;;;;;;23.05;44.26;100997.06;2075572;28;878;-56
2022/06/23 01:45:30;;;;;;;;;;;;;;;23.06;44.47;101004.22;2075541;28;1001;-56
2022/06/23 01:46:37;;;;;;;;;;;;;;;23.06;43.89;100990.72;2075552;28;608;-56
2022/06/23 01:47:50;;;;;;;;;;;;;;;23.05;43.94;100994.34;2075530;28;1059;-56
2022/06/23 01:49:02;;;;;;;;;;;;;;;23.06;43.22;100990.72;2075019;28;980;-56
2022/06/23 01:50:19;;;;;;;;;;;;;;;23.04;43.71;100988.09;2075533;28;842;-56
2022/06/23 01:51:30;;;;;;;;;;;;;;;23.06;42.80;100985.31;2075523;28;1005;-56
2022/06/23 01:52:30;;;;;;;;;;;;;;;23.06;42.81;100985.31;2075480;28;808;-56
2022/06/23 01:53:33;;;;;;;;;;;;;;;23.07;43.56;100984.38;2075488;28;989;-56
2022/06/23 01:54:34;;;;;;;;;;;;;;;23.05;43.33;100981.75;2075507;28;811;-56
2022/06/23 01:55:50;;;;;;;;;;;;;;;23.05;43.02;100979.03;2075620;28;737;-57
2022/06/23 01:57:07;;;;;;;;;;;;;;;23.06;43.63;100970.00;2074835;28;1910;-56
2022/06/23 01:58:10;;;;;;;;;;;;;;;23.05;43.15;100981.75;2075043;28;1068;-56
2022/06/23 01:59:29;;;;;;;;;;;;;;;23.04;43.60;100979.97;2075400;28;1010;-56
2022/06/23 02:00:30;;;;;;;;;;;;;;;23.05;43.32;100979.03;2075473;28;870;-56
2022/06/23 02:01:36;;;;;;;;;;;;;;;23.06;43.93;100978.09;2075416;28;981;-57
2022/06/23 02:02:56;;;;;;;;;;;;;;;23.07;43.49;100978.97;2075397;28;784;-57
2022/06/23 02:04:00;;;;;;;;;;;;;;;23.06;44.01;100970.00;2075452;28;925;-56
2022/06/23 02:05:00;;;;;;;;;;;;;;;23.07;43.65;100976.25;2075378;28;934;-56
2022/06/23 02:06:11;;;;;;;;;;;;;;;23.06;43.75;100978.09;2075411;28;960;-56
2022/06/23 02:07:18;;;;;;;;;;;;;;;23.07;44.48;100981.66;2075393;28;1061;-57
2022/06/23 02:08:24;;;;;;;;;;;;;;;23.05;44.54;100981.75;2075409;28;820;-56
2022/06/23 02:09:54;;;;;;;;;;;;;;;23.06;44.49;100982.59;2075385;28;796;-56
2022/06/23 02:11:01;;;;;;;;;;;;;;;23.06;44.66;100980.78;2065617;28;1481;-56
2022/06/23 02:12:02;;;;;;;;;;;;;;;23.07;44.58;100976.25;2066337;28;819;-56
2022/06/23 02:13:02;;;;;;;;;;;;;;;23.07;44.64;100978.97;2066333;28;800;-56
2022/06/23 02:14:19;;;;;;;;;;;;;;;23.06;44.71;100974.50;2066247;28;961;-56
2022/06/23 02:15:25;;;;;;;;;;;;;;;23.05;44.59;100978.16;2066164;28;1065;-56
2022/06/23 02:16:25;;;;;;;;;;;;;;;23.04;44.37;100977.28;2066143;28;1894;-56
2022/06/23 02:17:31;;;;;;;;;;;;;;;23.05;44.30;100976.34;2066230;28;962;-57
2022/06/23 02:18:47;;;;;;;;;;;;;;;23.04;44.78;100979.97;2058073;28;1002;-56
2022/06/23 02:19:52;;;;;;;;;;;;;;;23.04;44.82;100981.78;2060158;28;1002;-56
2022/06/23 02:21:03;;;;;;;;;;;;;;;23.04;44.79;100988.09;2066237;28;891;-57
2022/06/23 02:22:11;;;;;;;;;;;;;;;23.05;44.66;100986.25;2066182;28;1010;-56
2022/06/23 02:23:28;;;;;;;;;;;;;;;23.05;44.71;100997.94;2065839;28;1077;-56
2022/06/23 02:24:31;;;;;;;;;;;;;;;23.06;44.86;100993.41;2066240;28;882;-56
2022/06/23 02:25:34;;;;;;;;;;;;;;;23.04;45.22;101000.69;2066197;28;868;-56
2022/06/23 02:26:37;;;;;;;;;;;;;;;23.04;45.08;100996.19;2066097;28;800;-56
2022/06/23 02:27:40;;;;;;;;;;;;;;;23.03;45.26;100997.13;2065971;28;1014;-56
2022/06/23 02:28:46;;;;;;;;;;;;;;;23.03;45.05;100991.72;2065970;28;1281;-56
2022/06/23 02:30:02;;;;;;;;;;;;;;;23.04;44.79;101000.69;2066225;28;867;-56
2022/06/23 02:31:06;;;;;;;;;;;;;;;23.03;45.53;101002.53;2066057;28;1235;-56
2022/06/23 02:32:09;;;;;;;;;;;;;;;23.02;44.47;101003.47;2066124;28;1010;-56
2022/06/23 02:33:31;;;;;;;;;;;;;;;23.02;44.75;101005.28;2066125;28;897;-57
2022/06/23 02:34:40;;;;;;;;;;;;;;;23.02;44.45;101006.19;2065649;28;1020;-56
2022/06/23 02:35:46;;;;;;;;;;;;;;;23.02;43.95;101007.97;2066158;28;1045;-57
2022/06/23 02:37:01;;;;;;;;;;;;;;;23.01;44.17;101001.72;2066099;28;1918;-57
2022/06/23 02:38:22;;;;;;;;;;;;;;;23.02;43.74;101003.47;2066139;28;871;-56
2022/06/23 02:39:28;;;;;;;;;;;;;;;23.02;43.22;101000.78;2066136;28;1065;-56
2022/06/23 02:40:31;;;;;;;;;;;;;;;23.04;43.26;101008.81;2066139;28;895;-56
2022/06/23 02:41:34;;;;;;;;;;;;;;;23.03;42.99;101010.63;2066049;28;1038;-57
2022/06/23 02:42:37;;;;;;;;;;;;;;;23.03;43.22;101007.03;2066087;28;1029;-56
2022/06/23 02:43:45;;;;;;;;;;;;;;;23.02;42.82;101005.28;2066097;28;1014;-57
2022/06/23 02:44:56;;;;;;;;;;;;;;;23.03;42.73;101007.03;2066024;28;785;-56
2022/06/23 02:46:20;;;;;;;;;;;;;;;23.03;42.40;101017.84;2065607;28;1123;-57
2022/06/23 02:47:26;;;;;;;;;;;;;;;23.03;43.02;101018.75;2066092;28;831;-56
2022/06/23 02:49:01;;;;;;;;;;;;;;;23.03;42.70;101023.25;2074222;28;1068;-57
2022/06/23 02:50:11;;;;;;;;;;;;;;;23.03;42.84;101024.16;2075121;28;804;-57
2022/06/23 02:51:30;;;;;;;;;;;;;;;23.03;42.47;101025.97;2075151;28;838;-56
2022/06/23 02:52:30;;;;;;;;;;;;;;;23.03;43.29;101029.56;2075158;28;934;-56
2022/06/23 02:53:46;;;;;;;;;;;;;;;23.04;43.30;101025.00;2075104;28;855;-56
2022/06/23 02:54:46;;;;;;;;;;;;;;;23.03;43.38;101029.56;2075140;28;788;-56
2022/06/23 02:56:05;;;;;;;;;;;;;;;23.03;43.34;101028.66;2075101;28;776;-56
2022/06/23 02:57:14;;;;;;;;;;;;;;;23.03;42.83;101028.66;2074521;28;1961;-56
2022/06/23 02:58:27;;;;;;;;;;;;;;;23.03;42.97;101031.34;2075087;28;966;-57
2022/06/23 02:59:30;;;;;;;;;;;;;;;23.03;43.41;101028.66;2075038;28;990;-56
2022/06/23 03:00:33;;;;;;;;;;;;;;;23.05;42.92;101026.78;2075112;28;862;-56
2022/06/23 03:01:51;;;;;;;;;;;;;;;23.03;43.32;101032.25;2074980;28;1013;-57
2022/06/23 03:03:08;;;;;;;;;;;;;;;23.04;43.07;101030.41;2075064;28;1075;-56
2022/06/23 03:04:19;;;;;;;;;;;;;;;23.03;44.05;101029.56;2075051;28;906;-56
2022/06/23 03:05:19;;;;;;;;;;;;;;;23.03;43.77;101037.66;2075060;28;775;-57
2022/06/23 03:06:25;;;;;;;;;;;;;;;23.04;43.46;101035.81;2074985;28;847;-56
2022/06/23 03:07:30;;;;;;;;;;;;;;;23.03;43.84;101047.56;2075044;28;784;-57
2022/06/23 03:08:41;;;;;;;;;;;;;;;23.04;43.36;101046.63;2074512;28;980;-57
2022/06/23 03:09:44;;;;;;;;;;;;;;;23.02;44.39;101046.72;2075021;28;800;-57
2022/06/23 03:11:10;;;;;;;;;;;;;;;23.04;44.37;101046.63;2075066;28;886;-56
2022/06/23 03:12:13;;;;;;;;;;;;;;;23.03;43.63;101024.16;2065825;28;1143;-57
2022/06/23 03:13:32;;;;;;;;;;;;;;;23.04;44.14;101041.22;2065950;28;820;-56
2022/06/23 03:14:50;;;;;;;;;;;;;;;23.04;44.27;101043.94;2065884;28;921;-56
2022/06/23 03:15:59;;;;;;;;;;;;;;;23.03;43.91;101044.88;2065957;28;788;-56
2022/06/23 03:17:11;;;;;;;;;;;;;;;23.02;44.67;101041.31;2065800;28;2259;-56
2022/06/23 03:18:37;;;;;;;;;;;;;;;23.02;44.09;101044.00;2065897;28;963;-56
2022/06/23 03:19:42;;;;;;;;;;;;;;;23.02;44.66;101051.22;2057168;28;1308;-57
2022/06/23 03:21:00;;;;;;;;;;;;;;;23.03;44.29;101059.28;2057847;28;896;-57
2022/06/23 03:22:03;;;;;;;;;;;;;;;23.04;44.26;101052.03;2057831;28;1608;-56
2022/06/23 03:23:14;;;;;;;;;;;;;;;23.03;44.25;101050.28;2057799;28;978;-56
2022/06/23 03:24:26;;;;;;;;;;;;;;;23.03;45.04;101050.28;2057826;28;1053;-57
2022/06/23 03:25:26;;;;;;;;;;;;;;;23.04;45.18;101047.53;2057801;28;860;-57
2022/06/23 03:26:35;;;;;;;;;;;;;;;23.04;44.74;101052.03;2057833;28;804;-56
2022/06/23 03:27:48;;;;;;;;;;;;;;;23.03;44.41;101050.28;2057916;28;904;-56
2022/06/23 03:28:52;;;;;;;;;;;;;;;23.02;44.54;101051.22;2057739;28;1272;-56
2022/06/23 03:30:13;;;;;;;;;;;;;;;23.02;44.71;101048.50;2057772;28;1071;-57
2022/06/23 03:31:20;;;;;;;;;;;;;;;23.02;44.92;101048.50;2057275;28;1158;-57
2022/06/23 03:32:42;;;;;;;;;;;;;;;23.03;45.72;101044.88;2057833;28;998;-57
2022/06/23 03:33:44;;;;;;;;;;;;;;;23.02;45.03;101045.81;2057803;28;772;-58
2022/06/23 03:34:57;;;;;;;;;;;;;;;23.04;45.40;101046.63;2057800;28;1061;-57
2022/06/23 03:36:00;;;;;;;;;;;;;;;23.02;46.59;101048.50;2057758;28;1006;-57
2022/06/23 03:37:07;;;;;;;;;;;;;;;23.03;46.48;101047.56;2057638;28;1910;-56
2022/06/23 03:38:14;;;;;;;;;;;;;;;23.03;46.59;101044.88;2057643;28;938;-57
2022/06/23 03:42:17;;;;;;;;;;;;;;;23.02;46.99;101051.22;2059409;28;678;-56
2022/06/23 03:43:32;;;;;;;;;;;;;;;23.02;47.60;101053.91;2058953;28;1180;-56
2022/06/23 03:44:51;;;;;;;;;;;;;;;23.01;48.19;101052.16;2059395;28;1098;-57
2022/06/23 03:45:56;;;;;;;;;;;;;;;23.02;47.46;101053.91;2059294;28;947;-56
2022/06/23 03:47:01;;;;;;;;;;;;;;;23.01;48.50;101052.16;2059344;28;796;-57
2022/06/23 03:48:01;;;;;;;;;;;;;;;23.01;48.59;101053.06;2059358;28;904;-56
2022/06/23 03:49:12;;;;;;;;;;;;;;;23.01;48.68;101053.06;2059329;28;805;-56
2022/06/23 03:50:21;;;;;;;;;;;;;;;23.00;48.50;101045.00;2059288;28;943;-56
2022/06/23 03:51:24;;;;;;;;;;;;;;;23.00;48.18;101050.38;2059349;28;1061;-56
2022/06/23 03:52:32;;;;;;;;;;;;;;;22.98;48.24;101054.97;2059271;28;796;-56
2022/06/23 03:53:35;;;;;;;;;;;;;;;22.97;48.28;101055.91;2059266;28;789;-56
2022/06/23 03:54:55;;;;;;;;;;;;;;;22.97;48.61;101053.22;2058699;28;1053;-56
2022/06/23 03:56:00;;;;;;;;;;;;;;;22.95;48.64;101065.00;2051254;29;975;-56
2022/06/23 03:57:13;;;;;;;;;;;;;;;22.95;48.75;101054.19;2059548;28;1886;-56
2022/06/23 03:58:16;;;;;;;;;;;;;;;22.94;48.60;101054.22;2076419;28;994;-56
2022/06/23 03:59:28;;;;;;;;;;;;;;;22.94;48.66;101057.84;2076392;28;784;-56
2022/06/23 04:00:34;;;;;;;;;;;;;;;22.91;48.52;101057.97;2076437;28;871;-56
2022/06/23 04:01:40;;;;;;;;;;;;;;;22.90;48.24;101053.50;2076402;28;776;-56
2022/06/23 04:02:42;;;;;;;;;;;;;;;23.81;45.85;101058.78;2076351;28;1025;-56
2022/06/23 04:03:45;;;;;;;;;;;;;;;24.96;42.12;101056.31;2076499;28;776;-56
2022/06/23 04:04:51;;;;;;;;;;;;;;;25.76;40.29;101048.72;2076333;28;858;-56
2022/06/23 04:05:54;;;;;;;;;;;;;;;26.40;38.24;101048.06;2075833;28;992;-56
2022/06/23 04:06:54;;;;;;;;;;;;;;;26.80;36.86;101051.25;2076322;28;926;-56
2022/06/23 04:08:01;;;;;;;;;;;;;;;27.15;36.10;101055.66;2076283;28;1012;-55
2022/06/23 04:09:13;;;;;;;;;;;;;;;27.46;36.49;101049.28;2076310;28;797;-56
2022/06/23 04:10:19;;;;;;;;;;;;;;;27.76;35.19;101044.84;2076304;28;784;-56
2022/06/23 04:12:43;;;;;;;;;;;;;;;28.30;33.39;101046.09;2076322;28;634;-56
2022/06/23 04:13:43;;;;;;;;;;;;;;;28.50;32.19;101044.84;2076310;28;859;-56
2022/06/23 04:14:46;;;;;;;;;;;;;;;28.58;32.12;101044.34;2076293;28;970;-56
2022/06/23 04:15:49;;;;;;;;;;;;;;;28.95;32.01;101036.50;2076291;28;843;-56
2022/06/23 04:16:52;;;;;;;;;;;;;;;29.08;31.62;101034.72;2076164;28;1969;-56
2022/06/23 04:17:55;;;;;;;;;;;;;;;29.49;30.67;101032.94;2075744;28;1351;-56
2022/06/23 04:18:55;;;;;;;;;;;;;;;29.88;29.91;101033.84;2076229;28;847;-56
2022/06/23 04:20:10;;;;;;;;;;;;;;;30.09;29.23;101035.19;2075549;28;840;-56
2022/06/23 04:21:14;;;;;;;;;;;;;;;30.56;28.24;101044.56;2075568;28;804;-56
2022/06/23 04:22:18;;;;;;;;;;;;;;;30.74;28.32;101044.22;2075660;28;871;-56
2022/06/23 04:23:24;;;;;;;;;;;;;;;30.74;27.89;101041.47;2076163;28;831;-56
2022/06/23 04:24:25;;;;;;;;;;;;;;;30.69;28.19;101044.56;2076159;28;899;-56
2022/06/23 04:25:37;;;;;;;;;;;;;;;30.74;27.78;101046.94;2076194;28;788;-56
2022/06/23 04:26:40;;;;;;;;;;;;;;;30.99;27.89;101051.44;2076282;28;969;-57
2022/06/23 04:27:51;;;;;;;;;;;;;;;31.15;27.23;101042.97;2076166;28;855;-57
2022/06/23 04:28:53;;;;;;;;;;;;;;;31.43;27.15;101049.09;2075744;28;1064;-57
2022/06/23 04:29:55;;;;;;;;;;;;;;;31.65;26.33;101047.44;2076161;28;974;-56
2022/06/23 04:30:56;;;;;;;;;;;;;;;31.68;26.67;101049.94;2076136;28;1245;-57
2022/06/23 04:32:03;;;;;;;;;;;;;;;32.12;26.20;101047.44;2076148;28;843;-57
2022/06/23 04:33:04;;;;;;;;;;;;;;;32.16;26.11;101048.06;2076039;28;1292;-57
2022/06/23 04:34:05;;;;;;;;;;;;;;;31.85;26.47;101043.16;2076110;28;779;-57
2022/06/23 04:35:05;;;;;;;;;;;;;;;31.82;26.31;101056.22;2076088;28;1235;-57
2022/06/23 04:36:06;;;;;;;;;;;;;;;32.27;25.97;101047.19;2076062;28;1040;-57
2022/06/23 04:37:12;;;;;;;;;;;;;;;32.37;25.85;101045.50;2075971;28;1914;-57
2022/06/23 04:38:28;;;;;;;;;;;;;;;32.53;25.47;101047.84;2076170;28;989;-57
2022/06/23 04:39:38;;;;;;;;;;;;;;;32.34;25.96;101057.59;2076069;28;890;-57
2022/06/23 04:40:41;;;;;;;;;;;;;;;32.58;25.81;101051.09;2075567;28;1110;-57
2022/06/23 04:41:43;;;;;;;;;;;;;;;32.47;25.87;101054.72;2076039;28;1029;-57
2022/06/23 04:42:47;;;;;;;;;;;;;;;32.35;25.91;101061.19;2076038;28;997;-57
2022/06/23 04:43:53;;;;;;;;;;;;;;;32.40;26.08;101061.69;2076038;28;914;-56
2022/06/23 04:45:16;;;;;;;;;;;;;;;32.65;25.85;101065.19;2076068;28;1005;-57
2022/06/23 04:46:52;;;;;;;;;;;;;;;32.87;25.46;101067.06;2075919;28;1266;-57
2022/06/23 04:47:54;;;;;;;;;;;;;;;32.73;25.76;101070.03;2066938;28;1249;-57
2022/06/23 04:48:57;;;;;;;;;;;;;;;32.78;25.75;101070.53;2066974;28;1056;-57
2022/06/23 04:50:02;;;;;;;;;;;;;;;33.09;25.54;101074.34;2066688;28;1155;-57
2022/06/23 04:51:07;;;;;;;;;;;;;;;33.23;25.27;101075.94;2066957;28;1049;-57
2022/06/23 04:52:46;;;;;;;;;;;;;;;33.30;25.41;101067.19;2066341;28;989;-57
2022/06/23 04:53:46;;;;;;;;;;;;;;;33.44;25.14;101072.41;2042880;29;1347;-57
2022/06/23 04:54:54;;;;;;;;;;;;;;;33.42;25.18;101068.91;2042951;29;963;-57
2022/06/23 04:55:59;;;;;;;;;;;;;;;33.25;25.32;101075.81;2042904;29;789;-57
2022/06/23 04:57:09;;;;;;;;;;;;;;;33.38;25.27;101071.03;2042811;29;1957;-56
2022/06/23 04:58:16;;;;;;;;;;;;;;;33.50;25.14;101076.47;2042957;29;805;-57
2022/06/23 04:59:31;;;;;;;;;;;;;;;33.51;25.37;101076.38;2042810;29;939;-57
2022/06/23 05:00:43;;;;;;;;;;;;;;;33.55;25.02;101080.59;2042884;29;1054;-57
2022/06/23 05:01:46;;;;;;;;;;;;;;;33.43;24.98;101081.63;2042862;29;1050;-57
2022/06/23 05:02:51;;;;;;;;;;;;;;;33.31;25.25;101083.50;2042834;29;1093;-57
2022/06/23 05:03:55;;;;;;;;;;;;;;;33.43;24.91;101067.91;2042323;29;1156;-57
2022/06/23 05:04:59;;;;;;;;;;;;;;;33.76;24.34;101063.25;2042850;29;955;-57
2022/06/23 05:06:03;;;;;;;;;;;;;;;33.67;24.26;101064.94;2037470;29;4077;-57
2022/06/23 05:07:04;;;;;;;;;;;;;;;33.85;24.02;101070.69;2041685;29;1519;-57
2022/06/23 05:08:06;;;;;;;;;;;;;;;33.83;23.84;101064.44;2041298;29;899;-57
2022/06/23 05:09:13;;;;;;;;;;;;;;;34.10;23.60;101067.69;2042560;29;1310;-57
2022/06/23 05:10:31;;;;;;;;;;;;;;;33.90;23.86;101059.28;2042848;29;982;-57
2022/06/23 05:11:40;;;;;;;;;;;;;;;33.93;23.48;101056.28;2042797;29;1065;-57
2022/06/23 05:12:42;;;;;;;;;;;;;;;34.09;23.44;101057.69;2042671;29;1282;-57
2022/06/23 05:13:47;;;;;;;;;;;;;;;33.90;23.65;101061.16;2042284;29;1739;-57
2022/06/23 05:14:54;;;;;;;;;;;;;;;33.84;23.75;101059.84;2042801;29;829;-56
2022/06/23 05:15:57;;;;;;;;;;;;;;;34.05;23.33;101054.38;2042194;29;1184;-57
2022/06/23 05:17:13;;;;;;;;;;;;;;;33.70;23.96;101061.03;2044565;29;1955;-57
2022/06/23 05:18:13;;;;;;;;;;;;;;;33.63;23.94;101057.06;2045403;29;1546;-57
2022/06/23 05:19:23;;;;;;;;;;;;;;;33.95;23.32;101058.94;2043004;29;1710;-57
2022/06/23 05:20:31;;;;;;;;;;;;;;;34.26;22.99;101058.94;2042647;29;1427;-57
2022/06/23 05:21:38;;;;;;;;;;;;;;;34.29;23.01;101058.66;2034913;29;1003;-58
2022/06/23 05:22:44;;;;;;;;;;;;;;;34.09;23.35;101053.09;2039379;29;1102;-57
2022/06/23 05:24:02;;;;;;;;;;;;;;;34.26;23.26;101057.06;2051032;28;1662;-58
2022/06/23 05:25:24;;;;;;;;;;;;;;;34.50;22.88;101063.28;2058061;28;1094;-58
2022/06/23 05:26:27;;;;;;;;;;;;;;;34.41;22.77;101063.06;2074839;28;2014;-57
2022/06/23 05:27:30;;;;;;;;;;;;;;;34.31;23.06;101058.53;2074703;28;1531;-57
2022/06/23 05:28:32;;;;;;;;;;;;;;;34.41;22.95;101063.06;2077293;28;1628;-57
2022/06/23 05:29:35;;;;;;;;;;;;;;;34.34;22.90;101066.53;2078117;28;1415;-57
2022/06/23 05:30:39;;;;;;;;;;;;;;;34.44;23.07;101057.31;2080710;28;1523;-57
2022/06/23 05:31:40;;;;;;;;;;;;;;;34.49;22.86;101065.16;2080326;28;1494;-57
2022/06/23 05:32:45;;;;;;;;;;;;;;;34.65;22.86;101055.50;2078624;28;1423;-57
2022/06/23 05:33:51;;;;;;;;;;;;;;;34.74;22.38;101068.44;2077223;28;2778;-57
2022/06/23 05:34:56;;;;;;;;;;;;;;;34.44;22.85;101065.56;2075607;28;781;-57
2022/06/23 05:35:59;;;;;;;;;;;;;;;34.58;22.90;101064.31;2075408;28;1046;-57
2022/06/23 05:37:11;;;;;;;;;;;;;;;34.60;23.14;101072.44;2075399;28;1910;-57
2022/06/23 05:38:23;;;;;;;;;;;;;;;34.61;22.97;101059.56;2074950;28;880;-57
2022/06/23 05:39:28;;;;;;;;;;;;;;;34.41;23.10;101067.72;2075575;28;891;-57
2022/06/23 05:40:39;;;;;;;;;;;;;;;34.12;23.64;101062.94;2075570;28;864;-58
2022/06/23 05:41:41;;;;;;;;;;;;;;;34.15;23.71;101062.66;2075590;28;911;-57
2022/06/23 05:42:45;;;;;;;;;;;;;;;34.53;23.29;101063.88;2075243;28;978;-58
2022/06/23 05:43:47;;;;;;;;;;;;;;;34.42;23.24;101053.81;2074796;28;998;-57
2022/06/23 05:44:49;;;;;;;;;;;;;;;34.16;23.63;101053.41;2075510;28;820;-57
2022/06/23 05:45:54;;;;;;;;;;;;;;;34.25;23.49;101057.19;2075504;28;978;-57
2022/06/23 05:46:57;;;;;;;;;;;;;;;34.33;23.69;101060.13;2075488;28;808;-57
2022/06/23 05:47:58;;;;;;;;;;;;;;;34.58;23.34;101061.56;2075525;28;847;-57
2022/06/23 05:49:00;;;;;;;;;;;;;;;34.57;23.64;101069.97;2075498;28;962;-58
2022/06/23 05:50:03;;;;;;;;;;;;;;;34.52;23.58;101072.25;2075710;28;1059;-57
2022/06/23 05:51:10;;;;;;;;;;;;;;;34.65;23.80;101064.66;2083601;28;898;-57
2022/06/23 05:52:14;;;;;;;;;;;;;;;34.70;23.89;101055.97;2083636;28;978;-56
2022/06/23 05:53:22;;;;;;;;;;;;;;;34.68;23.96;101067.13;2082850;28;816;-57
2022/06/23 05:54:30;;;;;;;;;;;;;;;34.69;24.74;101063.38;2083689;28;879;-58
2022/06/23 05:55:40;;;;;;;;;;;;;;;34.47;24.77;101050.66;2083671;28;986;-58
2022/06/23 05:56:43;;;;;;;;;;;;;;;34.60;24.96;101055.94;2083532;28;1886;-57
2022/06/23 05:57:53;;;;;;;;;;;;;;;34.45;25.17;101063.69;2083573;28;1073;-57